Mc Comb/Pike County/John E Lewis Field
KMCB : now visible

Airfield :











YOU CAN JOIN US ON...

 
LOGIN :

Register | Disclaimer

   EN    FR    IT 

 









Legend :    VFR   Marginal VFR   IFR   Intensive IFR   Very Intensive IFR
Visi :
Ceiling :
>= 8 km
>= 3000ft
5 to 8 km
1000 to 3000 ft
1500m to 5 km
500 to 1000 ft
800 to 1500m
200 to 500 ft
< 800m
< 200 ft
Symbols :   Thunderstorms  Fog  Heavy snow  Heavy precipitations  Wind > 20 kt







- Airport Elevation : 413 ft


KMCB - Mc Comb/Pike County/John E Lewis Field

CURRENT METAR :
  • 191153Z AUTO 30009G18KT 10SM OVC020 11/07 A2978 RMK AO2 SLP081 60001 70306 T01110072 10156 20111 53024

EXPIRED METARs :
  • 191053Z AUTO 31012KT 10SM OVC020 11/07 A2974 RMK AO2 SLP070 T01110072
  • 190953Z AUTO 32010KT 10SM OVC020 12/08 A2972 RMK AO2 SLP063 T01170078

TAF KMCB
Valid from the 19 at 12:00 until the 20 at 12:00 UTC


191143Z 1912/2012 31012KT P6SM OVC020
FM191300 31011KT P6SM SCT015 OVC035
FM191800 30015KT P6SM -SHRA SCT035 OVC050
TEMPO 1920/1924 4SM TSRAGR BKN035CB
FM200000 31014KT P6SM FEW050 SCT200
FM200300 VRB03KT P6SM FEW045 SCT200
KZHU FIR / North America



MET'MAP, your aeronautical weather chart ! - Copyright ORBIFLY December 2007 - Disclaimer

ORBIFLY MET'MAP TEAM :

Programming & Development : Alexandra Zaïnal
Concept & Development : Baudouin d'Aumeries
Co-Development & Prog : Marc-Olivier Méhu
Technical & hardware support : Manuel Goepfert

Contact : metmap@orbifly.com




SOURCES & CREDITS :

   NOAA       Earth
Advisory